Adak, AK

7:42 AM HDT on August 25, 2016 (GMT -0900)
Adak | | Change Station

Elev 13 ft 51.88 °N, 176.65 °W | Updated 6 minutes ago

Overcast
Overcast
50 °F
Feels Like 50 °F
N
17
Wind Variable Wind from SW

Today
High -- | Low -- °F
--% Chance of Precip.
Yesterday
High -- | Low -- °F
Precip. -- in
Pressure 30.13 in
Visibility 3.0 miles
Clouds Mostly Cloudy 600 ft
Overcast 1100 ft
Dew Point 45 °F
Humidity 82%
Rainfall 0.17 in
Snow Depth Not available.
7:48 AM 9:47 PM
Last Quarter, 44% visible
METAR PADK 251636Z AUTO 22015KT 3SM BKN006 OVC011 10/07 A3013 RMK AO1
Pressure 30.13 in
Visibility 3.0 miles
Clouds Mostly Cloudy 600 ft
Overcast 1100 ft
Dew Point 45 °F
Humidity 82%
Rainfall 0.17 in
Snow Depth Not available.
7:48 AM 9:47 PM
Last Quarter, 44% visible
METAR PADK 251636Z AUTO 22015KT 3SM BKN006 OVC011 10/07 A3013 RMK AO1

10-Day Weather Forecast

Almanac

Astronomy

Aug. 25, 2016 Rise Set
Actual Time
Civil Twilight
Nautical Twilight
Astronomical Twilight
Moon
Length of Visible Light
Length of Day
Tomorrow will be .
, % of the Moon is Illuminated

Today's Extremes

State Highs State Lows

Community

WunderPhotos

Upload Photos

1,934,869 photos uploaded!

WunderBlog® & News

Nearby

Air Quality

  Air Quality AQ Index Pollutant
Not available.

Snow Depth

Station Depth Elevation

Earthquake Activity

City Distance Mag. Time & Date
Minimum magnitude displayed is 2.5.

Coastal Water Temperatures

Place Temperature

Stations

Nearby Weather Stations

Station Location Temp. Windchill Dew Point Humidity Wind Precip. Elev Updated Type
                   

Watches & Warnings

There are currently no watches in effect.